Time;durP1;ratioP1;P1;durP2;ratioP2;P2;SDS_P1;SDS_P2;PMS_P1;PMS_P2;Temp;Humidity;BMP_temperature;BMP_pressure;BME280_temperature;BME280_humidity;BME280_pressure;Samples;Min_cycle;Max_cycle;Signal;HPM_P1;HPM_P2
2023/02/26 00:01:35;;;;;;;;;;;;;;;-2.48;nan;100229.81;5000130;28;19959;-87
2023/02/26 00:04:02;;;;;;;;;;;;;;;-2.49;nan;100229.88;5018063;28;20337;-84
2023/02/26 00:06:27;;;;;;;;;;;;;;;-2.52;nan;100230.03;5016299;28;19917;-86
2023/02/26 00:08:53;;;;;;;;;;;;;;;-2.53;nan;100238.69;5013369;28;19917;-87
2023/02/26 00:11:18;;;;;;;;;;;;;;;-2.50;nan;100230.75;4993556;28;19917;-87
2023/02/26 00:13:44;;;;;;;;;;;;;;;-2.47;nan;100241.81;5004555;28;19914;-86
2023/02/26 00:16:22;;;;;;;;;;;;;;;-2.43;nan;100239.91;5002026;28;19932;-87
2023/02/26 00:18:48;;;;;;;;;;;;;;;-2.44;nan;100239.06;4987047;28;19964;-85
2023/02/26 00:21:17;;;;;;;;;;;;;;;-2.40;nan;100250.13;4994245;28;19918;-84
2023/02/26 00:23:44;;;;;;;;;;;;;;;-2.35;nan;100242.97;5006139;28;19921;-85
2023/02/26 00:26:10;;;;;;;;;;;;;;;-2.32;nan;100247.97;4988192;28;19979;-85
2023/02/26 00:28:35;;;;;;;;;;;;;;;-2.25;nan;100245.94;4987322;28;19913;-85
2023/02/26 00:31:00;;;;;;;;;;;;;;;-2.20;nan;100249.13;4990809;28;20025;-85
2023/02/26 00:33:26;;;;;;;;;;;;;;;-2.18;nan;100248.13;5001553;28;19925;-86
2023/02/26 00:35:55;;;;;;;;;;;;;;;-2.16;nan;100248.06;4993058;28;20413;-85
2023/02/26 00:38:21;;;;;;;;;;;;;;;-2.19;nan;100256.00;4980428;28;20015;-85
2023/02/26 00:40:47;;;;;;;;;;;;;;;-2.24;nan;100245.88;4990552;28;20000;-85
2023/02/26 00:43:17;;;;;;;;;;;;;;;-2.29;nan;100247.00;4987912;28;19944;-86
2023/02/26 00:46:04;;;;;;;;;;;;;;;-2.38;nan;100249.13;4994994;28;19944;-85
2023/02/26 00:48:29;;;;;;;;;;;;;;;-2.44;nan;100243.41;4993809;28;19936;-85
2023/02/26 00:51:01;;;;;;;;;;;;;;;-2.44;nan;100253.78;4986203;28;19913;-85
2023/02/26 00:53:47;;;;;;;;;;;;;;;-2.45;nan;100250.34;4987924;28;20012;-85
2023/02/26 00:56:12;;;;;;;;;;;;;;;-2.50;nan;100251.47;4977723;28;20196;-86
2023/02/26 00:58:38;;;;;;;;;;;;;;;-2.57;nan;100250.97;4986407;28;19924;-87
2023/02/26 01:01:03;;;;;;;;;;;;;;;-2.62;nan;100250.34;4991697;28;19913;-85
2023/02/26 01:03:30;;;;;;;;;;;;;;;-2.64;nan;100252.16;5017139;28;19992;-86
2023/02/26 01:05:55;;;;;;;;;;;;;;;-2.66;nan;100260.00;4988647;28;19920;-86
2023/02/26 01:08:29;;;;;;;;;;;;;;;-2.69;nan;100254.13;4999583;28;19922;-86
2023/02/26 01:10:55;;;;;;;;;;;;;;;-2.70;nan;100258.47;5020223;28;19976;-87
2023/02/26 01:13:20;;;;;;;;;;;;;;;-2.69;nan;100256.72;5001941;28;19963;-85
2023/02/26 01:15:49;;;;;;;;;;;;;;;-2.71;nan;100259.38;5003307;28;19971;-86
2023/02/26 01:18:21;;;;;;;;;;;;;;;-2.79;nan;100244.25;5019581;28;20379;-85
2023/02/26 01:20:52;;;;;;;;;;;;;;;-2.83;nan;100249.63;5015097;28;19956;-87
2023/02/26 01:23:22;;;;;;;;;;;;;;;-2.87;nan;100250.69;4999558;28;19917;-86
2023/02/26 01:25:50;;;;;;;;;;;;;;;-2.86;nan;100250.63;4996724;28;19918;-86
2023/02/26 01:28:16;;;;;;;;;;;;;;;-2.81;nan;100250.41;5017357;28;19913;-86
2023/02/26 01:30:45;;;;;;;;;;;;;;;-2.74;nan;100254.38;5004526;28;20000;-87
2023/02/26 01:33:43;;;;;;;;;;;;;;;-2.68;nan;100253.22;4997689;28;19933;-85
2023/02/26 01:36:09;;;;;;;;;;;;;;;-2.61;nan;100252.84;4967146;28;19936;-87
2023/02/26 01:38:34;;;;;;;;;;;;;;;-2.59;nan;100255.38;4997081;28;19917;-86
2023/02/26 01:41:18;;;;;;;;;;;;;;;-2.58;nan;100244.91;4995512;28;19922;-86
2023/02/26 01:43:50;;;;;;;;;;;;;;;-2.58;nan;100254.44;5012016;28;20398;-86
2023/02/26 01:46:32;;;;;;;;;;;;;;;-2.51;nan;100247.22;5007547;28;19959;-87
2023/02/26 01:48:58;;;;;;;;;;;;;;;-2.48;nan;100250.50;4995216;28;19917;-87
2023/02/26 01:51:41;;;;;;;;;;;;;;;-2.46;nan;100248.66;4996966;28;19953;-87
2023/02/26 01:54:06;;;;;;;;;;;;;;;-2.46;nan;100255.59;4987228;28;19913;-87
2023/02/26 01:56:31;;;;;;;;;;;;;;;-2.46;nan;100251.25;5005963;28;19955;-86
2023/02/26 01:58:57;;;;;;;;;;;;;;;-2.46;nan;100253.00;5024848;28;19920;-86
2023/02/26 02:01:22;;;;;;;;;;;;;;;-2.50;nan;100260.09;5005857;28;20009;-87
2023/02/26 02:03:47;;;;;;;;;;;;;;;-2.54;nan;100248.22;5010887;28;19927;-85
2023/02/26 02:06:20;;;;;;;;;;;;;;;-2.56;nan;100253.44;5022742;28;19984;-85
2023/02/26 02:08:46;;;;;;;;;;;;;;;-2.58;nan;100251.84;5015837;28;19981;-86
2023/02/26 02:11:12;;;;;;;;;;;;;;;-2.60;nan;100249.38;5004724;28;19944;-86
2023/02/26 02:13:40;;;;;;;;;;;;;;;-2.62;nan;100253.78;5004162;28;19967;-87
2023/02/26 02:16:11;;;;;;;;;;;;;;;-2.62;nan;100253.78;5002066;28;19921;-86
2023/02/26 02:18:55;;;;;;;;;;;;;;;-2.61;nan;100246.84;5003604;28;20004;-86
2023/02/26 02:21:44;;;;;;;;;;;;;;;-2.59;nan;100251.03;5000658;28;19920;-86
2023/02/26 02:24:17;;;;;;;;;;;;;;;-2.58;nan;100257.03;4982008;28;20239;-85
2023/02/26 02:27:01;;;;;;;;;;;;;;;-2.61;nan;100254.59;5005015;28;19921;-86
2023/02/26 02:29:26;;;;;;;;;;;;;;;-2.62;nan;100258.94;5004467;28;19956;-86
2023/02/26 02:31:58;;;;;;;;;;;;;;;-2.64;nan;100268.53;5004040;28;19925;-85
2023/02/26 02:34:31;;;;;;;;;;;;;;;-2.67;nan;100266.09;5001161;28;20637;-85
2023/02/26 02:37:16;;;;;;;;;;;;;;;-2.65;nan;100268.59;4984440;28;19924;-85
2023/02/26 02:39:43;;;;;;;;;;;;;;;-2.71;nan;100271.50;4995691;28;19925;-85
2023/02/26 02:42:14;;;;;;;;;;;;;;;-2.72;nan;100268.03;4993599;28;19999;-85
2023/02/26 02:44:42;;;;;;;;;;;;;;;-2.69;nan;100270.50;4996869;28;19948;-85
2023/02/26 02:47:09;;;;;;;;;;;;;;;-2.68;nan;100268.75;4992594;28;19924;-85
2023/02/26 02:49:38;;;;;;;;;;;;;;;-2.65;nan;100273.78;5001987;28;20005;-86
2023/02/26 02:52:12;;;;;;;;;;;;;;;-2.65;nan;100274.59;4999095;28;19924;-87
2023/02/26 02:54:37;;;;;;;;;;;;;;;-2.65;nan;100269.44;5005533;28;20070;-85
2023/02/26 02:57:03;;;;;;;;;;;;;;;-2.66;nan;100267.75;5001941;28;19948;-86
2023/02/26 02:59:45;;;;;;;;;;;;;;;-2.67;nan;100271.28;5000938;28;19964;-86
2023/02/26 03:02:14;;;;;;;;;;;;;;;-2.69;nan;100274.81;5003779;28;20380;-86
2023/02/26 03:04:40;;;;;;;;;;;;;;;-2.72;nan;100274.97;5004052;28;19917;-86
2023/02/26 03:07:05;;;;;;;;;;;;;;;-2.73;nan;100273.31;5004542;28;19918;-86
2023/02/26 03:09:31;;;;;;;;;;;;;;;-2.73;nan;100279.31;5004050;28;19929;-86
2023/02/26 03:11:56;;;;;;;;;;;;;;;-2.70;nan;100280.94;5008274;28;19985;-86
2023/02/26 03:14:21;;;;;;;;;;;;;;;-2.68;nan;100285.13;5004732;28;19992;-86
2023/02/26 03:17:06;;;;;;;;;;;;;;;-2.68;nan;100284.28;5004963;28;19925;-86
2023/02/26 03:19:43;;;;;;;;;;;;;;;-2.79;nan;100293.41;5016294;28;19920;-86
2023/02/26 03:22:12;;;;;;;;;;;;;;;-2.84;nan;100292.75;5001370;28;19949;-86
2023/02/26 03:24:44;;;;;;;;;;;;;;;-2.92;nan;100296.63;4995004;28;19917;-86
2023/02/26 03:27:21;;;;;;;;;;;;;;;-3.00;nan;100291.81;5000938;28;20434;-86
2023/02/26 03:30:02;;;;;;;;;;;;;;;-3.10;nan;100299.16;5000137;28;20412;-85
2023/02/26 03:32:30;;;;;;;;;;;;;;;-3.15;nan;100293.34;5017784;28;19927;-86
2023/02/26 03:35:00;;;;;;;;;;;;;;;-3.23;nan;100304.03;5001380;28;19933;-86
2023/02/26 03:37:45;;;;;;;;;;;;;;;-3.25;nan;100308.44;5003894;28;20317;-86
2023/02/26 03:40:19;;;;;;;;;;;;;;;-3.30;nan;100310.41;5001093;28;19949;-85
2023/02/26 03:42:47;;;;;;;;;;;;;;;-3.31;nan;100319.09;5002889;28;20437;-86
2023/02/26 03:45:15;;;;;;;;;;;;;;;-3.35;nan;100325.28;5007646;28;19921;-85
2023/02/26 03:47:43;;;;;;;;;;;;;;;-3.36;nan;100322.75;5018483;28;19992;-85
2023/02/26 03:50:11;;;;;;;;;;;;;;;-3.36;nan;100320.16;5008425;28;19917;-85
2023/02/26 03:52:39;;;;;;;;;;;;;;;-3.38;nan;100316.81;4992544;28;19928;-85
2023/02/26 03:55:08;;;;;;;;;;;;;;;-3.38;nan;100319.41;5000634;28;19930;-85
2023/02/26 03:57:33;;;;;;;;;;;;;;;-3.37;nan;100334.00;5000281;28;19913;-84
2023/02/26 03:59:59;;;;;;;;;;;;;;;-3.38;nan;100327.16;5017643;28;19913;-85
2023/02/26 04:02:28;;;;;;;;;;;;;;;-3.39;nan;100331.50;4999826;28;19920;-85
2023/02/26 04:05:12;;;;;;;;;;;;;;;-3.43;nan;100335.97;5000827;28;19924;-85
2023/02/26 04:07:38;;;;;;;;;;;;;;;-3.43;nan;100342.91;5000092;28;19914;-86
2023/02/26 04:10:03;;;;;;;;;;;;;;;-3.47;nan;100341.34;5000350;28;20006;-85
2023/02/26 04:12:28;;;;;;;;;;;;;;;-3.52;nan;100346.72;5016517;28;19917;-85
2023/02/26 04:14:55;;;;;;;;;;;;;;;-3.56;nan;100347.75;5008101;28;19929;-85
2023/02/26 04:17:21;;;;;;;;;;;;;;;-3.55;nan;100353.75;4994776;28;19923;-85
2023/02/26 04:19:46;;;;;;;;;;;;;;;-3.47;nan;100359.44;4999811;28;19948;-85
2023/02/26 04:22:11;;;;;;;;;;;;;;;-3.34;nan;100360.56;5000259;28;19918;-85
2023/02/26 04:24:36;;;;;;;;;;;;;;;-3.22;nan;100357.47;4996005;28;20291;-84
2023/02/26 04:27:02;;;;;;;;;;;;;;;-3.09;nan;100369.84;5006104;28;19964;-84
2023/02/26 04:29:27;;;;;;;;;;;;;;;-3.03;nan;100373.00;5004213;28;19967;-83
2023/02/26 04:31:52;;;;;;;;;;;;;;;-2.97;nan;100368.44;4986812;28;20004;-84
2023/02/26 04:34:18;;;;;;;;;;;;;;;-2.95;nan;100370.06;4989338;28;19930;-84
2023/02/26 04:36:43;;;;;;;;;;;;;;;-2.91;nan;100373.31;5006623;28;19921;-83
2023/02/26 04:39:09;;;;;;;;;;;;;;;-2.92;nan;100375.06;5005189;28;19996;-84
2023/02/26 04:41:34;;;;;;;;;;;;;;;-2.94;nan;100369.13;5000015;28;20402;-84
2023/02/26 04:43:59;;;;;;;;;;;;;;;-2.92;nan;100376.84;5012936;28;19913;-84
2023/02/26 04:46:25;;;;;;;;;;;;;;;-2.93;nan;100386.34;5006039;28;19925;-84
2023/02/26 04:48:50;;;;;;;;;;;;;;;-2.98;nan;100390.88;5008969;28;19922;-84
2023/02/26 04:51:15;;;;;;;;;;;;;;;-3.04;nan;100383.41;5011857;28;19913;-84
2023/02/26 04:53:40;;;;;;;;;;;;;;;-3.10;nan;100391.41;5012412;28;19912;-83
2023/02/26 04:56:06;;;;;;;;;;;;;;;-3.13;nan;100391.56;4983950;28;20275;-83
2023/02/26 04:58:31;;;;;;;;;;;;;;;-3.15;nan;100390.78;4990875;28;19980;-84
2023/02/26 05:00:57;;;;;;;;;;;;;;;-3.22;nan;100393.66;4991468;28;19980;-84
2023/02/26 05:03:22;;;;;;;;;;;;;;;-3.28;nan;100398.25;4985451;28;20011;-83
2023/02/26 05:05:47;;;;;;;;;;;;;;;-3.35;nan;100391.66;4990208;28;19967;-83
2023/02/26 05:08:12;;;;;;;;;;;;;;;-3.39;nan;100400.47;5008965;28;20271;-84
2023/02/26 05:10:38;;;;;;;;;;;;;;;-3.41;nan;100408.25;4999926;28;19996;-84
2023/02/26 05:13:03;;;;;;;;;;;;;;;-3.38;nan;100405.56;4989954;28;19925;-83
2023/02/26 05:15:28;;;;;;;;;;;;;;;-3.39;nan;100403.03;4991583;28;20462;-83
2023/02/26 05:17:53;;;;;;;;;;;;;;;-3.42;nan;100409.19;4989663;28;19944;-83
2023/02/26 05:20:18;;;;;;;;;;;;;;;-3.47;nan;100416.31;5009365;28;19917;-83
2023/02/26 05:22:44;;;;;;;;;;;;;;;-3.50;nan;100424.19;4992565;28;20410;-83
2023/02/26 05:25:11;;;;;;;;;;;;;;;-3.48;nan;100419.78;4989981;28;19921;-84
2023/02/26 05:27:36;;;;;;;;;;;;;;;-3.47;nan;100419.72;4992329;28;19917;-83
2023/02/26 05:30:01;;;;;;;;;;;;;;;-3.41;nan;100423.78;4991699;28;19929;-84
2023/02/26 05:32:27;;;;;;;;;;;;;;;-3.37;nan;100433.09;5009717;28;20277;-84
2023/02/26 05:34:52;;;;;;;;;;;;;;;-3.34;nan;100435.53;4992140;28;20214;-83
2023/02/26 05:37:17;;;;;;;;;;;;;;;-3.20;nan;100429.78;4994290;28;20421;-84
2023/02/26 05:39:42;;;;;;;;;;;;;;;-3.06;nan;100436.94;4994807;28;19924;-84
2023/02/26 05:42:10;;;;;;;;;;;;;;;-3.01;nan;100438.41;5010297;28;20387;-84
2023/02/26 05:44:35;;;;;;;;;;;;;;;-2.93;nan;100438.09;5010392;28;19921;-83
2023/02/26 05:47:01;;;;;;;;;;;;;;;-2.86;nan;100442.09;4994741;28;19925;-85
2023/02/26 05:49:26;;;;;;;;;;;;;;;-2.78;nan;100449.50;4994374;28;19913;-85
2023/02/26 05:51:51;;;;;;;;;;;;;;;-2.71;nan;100452.66;4993577;28;20052;-84
2023/02/26 05:54:16;;;;;;;;;;;;;;;-2.67;nan;100446.41;4993686;28;20310;-84
2023/02/26 05:56:42;;;;;;;;;;;;;;;-2.65;nan;100447.19;5012723;28;19921;-85
2023/02/26 05:59:07;;;;;;;;;;;;;;;-2.65;nan;100457.53;5000050;28;19924;-84
2023/02/26 06:01:33;;;;;;;;;;;;;;;-2.65;nan;100458.38;5012294;28;19924;-85
2023/02/26 06:03:58;;;;;;;;;;;;;;;-2.64;nan;100460.06;4996717;28;20338;-85
2023/02/26 06:06:25;;;;;;;;;;;;;;;-2.63;nan;100460.91;4995693;28;19917;-85
2023/02/26 06:08:50;;;;;;;;;;;;;;;-2.64;nan;100473.00;5017714;28;19917;-85
2023/02/26 06:11:15;;;;;;;;;;;;;;;-2.64;nan;100469.59;5016209;28;20333;-86
2023/02/26 06:13:41;;;;;;;;;;;;;;;-2.65;nan;100473.91;4991399;28;19921;-86
2023/02/26 06:16:06;;;;;;;;;;;;;;;-2.63;nan;100482.44;4989976;28;20433;-87
2023/02/26 06:18:32;;;;;;;;;;;;;;;-2.56;nan;100486.44;5000563;28;19945;-87
2023/02/26 06:20:57;;;;;;;;;;;;;;;-2.54;nan;100482.94;4998452;28;19924;-87
2023/02/26 06:23:23;;;;;;;;;;;;;;;-2.54;nan;100478.63;4999024;28;19913;-85
2023/02/26 06:25:49;;;;;;;;;;;;;;;-2.52;nan;100492.34;4991711;28;19941;-87
2023/02/26 06:28:14;;;;;;;;;;;;;;;-2.49;nan;100499.94;4983414;28;19945;-87
2023/02/26 06:30:40;;;;;;;;;;;;;;;-2.44;nan;100507.50;4987871;28;19936;-86
2023/02/26 06:33:05;;;;;;;;;;;;;;;-2.42;nan;100524.66;4993614;28;19944;-84
2023/02/26 06:35:30;;;;;;;;;;;;;;;-2.38;nan;100518.44;4990810;28;19931;-85
2023/02/26 06:37:55;;;;;;;;;;;;;;;-2.33;nan;100525.16;4996029;28;19917;-85
2023/02/26 06:40:21;;;;;;;;;;;;;;;-2.32;nan;100529.41;4993628;28;20004;-85
2023/02/26 06:42:46;;;;;;;;;;;;;;;-2.31;nan;100538.84;4987028;28;19932;-85
2023/02/26 06:45:11;;;;;;;;;;;;;;;-2.28;nan;100552.53;5011359;28;19921;-85
2023/02/26 06:47:37;;;;;;;;;;;;;;;-2.29;nan;100557.75;5009989;28;19917;-85
2023/02/26 06:50:03;;;;;;;;;;;;;;;-2.26;nan;100555.88;4992085;28;19918;-85
2023/02/26 06:52:28;;;;;;;;;;;;;;;-2.21;nan;100553.09;4996871;28;19913;-86
2023/02/26 06:54:53;;;;;;;;;;;;;;;-2.15;nan;100557.97;5002908;28;19973;-86
2023/02/26 06:57:18;;;;;;;;;;;;;;;-2.10;nan;100571.56;4998976;28;19922;-85
2023/02/26 06:59:43;;;;;;;;;;;;;;;-2.05;nan;100573.94;4999628;28;19967;-86
2023/02/26 07:02:15;;;;;;;;;;;;;;;-2.06;nan;100575.69;5014300;28;19967;-86
2023/02/26 07:04:40;;;;;;;;;;;;;;;-2.05;nan;100581.72;4997005;28;19936;-86
2023/02/26 07:07:05;;;;;;;;;;;;;;;-1.99;nan;100574.50;5000270;28;19925;-86
2023/02/26 07:09:30;;;;;;;;;;;;;;;-1.82;nan;100585.84;5001760;28;20442;-86
2023/02/26 07:11:55;;;;;;;;;;;;;;;-1.78;nan;100582.22;5002950;28;19913;-86
2023/02/26 07:14:20;;;;;;;;;;;;;;;-1.68;nan;100590.41;5004406;28;19960;-85
2023/02/26 07:16:46;;;;;;;;;;;;;;;-1.58;nan;100592.47;5012673;28;19975;-85
2023/02/26 07:19:11;;;;;;;;;;;;;;;-1.45;nan;100591.88;5001256;28;19921;-85
2023/02/26 07:21:36;;;;;;;;;;;;;;;-1.37;nan;100592.38;5001501;28;20303;-85
2023/02/26 07:24:01;;;;;;;;;;;;;;;-1.35;nan;100593.97;5004033;28;19989;-86
2023/02/26 07:26:26;;;;;;;;;;;;;;;-1.18;nan;100600.09;5001488;28;19928;-85
2023/02/26 07:28:52;;;;;;;;;;;;;;;-1.14;nan;100602.47;5020060;28;19953;-85
2023/02/26 07:31:17;;;;;;;;;;;;;;;-1.22;nan;100607.19;5001703;28;20011;-85
2023/02/26 07:33:42;;;;;;;;;;;;;;;-1.27;nan;100606.56;4999039;28;19917;-85
2023/02/26 07:36:07;;;;;;;;;;;;;;;-1.23;nan;100617.66;5014938;28;19925;-86
2023/02/26 07:38:32;;;;;;;;;;;;;;;-1.14;nan;100620.63;5001011;28;19945;-86
2023/02/26 07:40:58;;;;;;;;;;;;;;;-1.06;nan;100625.44;5001939;28;19917;-85
2023/02/26 07:43:23;;;;;;;;;;;;;;;-0.97;nan;100622.41;5002225;28;19925;-85
2023/02/26 07:45:49;;;;;;;;;;;;;;;-0.86;nan;100630.50;5023046;28;19960;-85
2023/02/26 07:48:14;;;;;;;;;;;;;;;-0.81;nan;100626.81;5003860;28;19920;-85
2023/02/26 07:50:39;;;;;;;;;;;;;;;-0.65;nan;100625.97;5006201;28;19913;-85
2023/02/26 07:53:05;;;;;;;;;;;;;;;-0.51;nan;100625.28;5005637;28;19924;-85
2023/02/26 07:55:30;;;;;;;;;;;;;;;-0.50;nan;100631.28;5005618;28;19924;-86
2023/02/26 07:57:55;;;;;;;;;;;;;;;-0.44;nan;100631.81;5004183;28;19914;-85
2023/02/26 08:00:20;;;;;;;;;;;;;;;-0.40;nan;100634.28;5004180;28;19917;-85
2023/02/26 08:02:46;;;;;;;;;;;;;;;-0.32;nan;100642.50;5003994;28;19917;-85
2023/02/26 08:05:11;;;;;;;;;;;;;;;-0.33;nan;100644.28;5004954;28;19976;-85
2023/02/26 08:07:37;;;;;;;;;;;;;;;-0.31;nan;100644.19;5007035;28;19902;-86
2023/02/26 08:10:03;;;;;;;;;;;;;;;-0.25;nan;100636.09;5008699;28;19939;-85
2023/02/26 08:12:28;;;;;;;;;;;;;;;-0.05;nan;100643.69;5008683;28;19918;-85
2023/02/26 08:14:53;;;;;;;;;;;;;;;0.05;nan;100641.44;5018984;28;19952;-86
2023/02/26 08:17:19;;;;;;;;;;;;;;;0.19;nan;100648.47;5024796;28;19920;-85
2023/02/26 08:19:44;;;;;;;;;;;;;;;0.23;nan;100643.97;5027556;28;19914;-86
2023/02/26 08:22:09;;;;;;;;;;;;;;;0.35;nan;100645.91;5028419;28;20073;-86
2023/02/26 08:24:34;;;;;;;;;;;;;;;0.27;nan;100635.09;5019211;28;20485;-86
2023/02/26 08:26:59;;;;;;;;;;;;;;;0.28;nan;100641.94;4997468;28;20395;-86
2023/02/26 08:29:24;;;;;;;;;;;;;;;0.42;nan;100644.63;4993221;28;19917;-86
2023/02/26 08:31:50;;;;;;;;;;;;;;;0.53;nan;100652.69;4990613;28;19918;-86
2023/02/26 08:34:15;;;;;;;;;;;;;;;0.74;nan;100652.41;4992868;28;19932;-84
2023/02/26 08:36:40;;;;;;;;;;;;;;;0.66;nan;100652.84;4995487;28;20333;-85
2023/02/26 08:39:06;;;;;;;;;;;;;;;0.74;nan;100657.63;4996536;28;19932;-86
2023/02/26 08:41:31;;;;;;;;;;;;;;;0.70;nan;100656.97;4993772;28;20344;-85
2023/02/26 08:44:00;;;;;;;;;;;;;;;0.58;nan;100660.25;5007784;28;20012;-86
2023/02/26 08:46:25;;;;;;;;;;;;;;;0.52;nan;100666.63;5006445;28;19953;-85
2023/02/26 08:48:50;;;;;;;;;;;;;;;0.66;nan;100676.28;4992241;28;20319;-85
2023/02/26 08:51:15;;;;;;;;;;;;;;;0.78;nan;100662.56;4992239;28;20012;-85
2023/02/26 08:53:40;;;;;;;;;;;;;;;0.83;nan;100676.19;5010164;28;19921;-86
2023/02/26 08:56:06;;;;;;;;;;;;;;;1.40;nan;100678.13;4990907;28;19921;-86
2023/02/26 08:58:31;;;;;;;;;;;;;;;1.93;nan;100683.72;4992977;28;19932;-85
2023/02/26 09:00:56;;;;;;;;;;;;;;;2.58;nan;100685.00;4996694;28;19921;-85
2023/02/26 09:03:21;;;;;;;;;;;;;;;2.86;nan;100681.44;5000499;28;20350;-85
2023/02/26 09:05:46;;;;;;;;;;;;;;;2.75;nan;100696.03;5000101;28;19953;-85
2023/02/26 09:08:14;;;;;;;;;;;;;;;3.10;nan;100698.16;4992059;28;19917;-86
2023/02/26 09:10:40;;;;;;;;;;;;;;;2.86;nan;100703.19;4990578;28;20009;-85
2023/02/26 09:13:05;;;;;;;;;;;;;;;2.95;nan;100701.75;4991899;28;20004;-85
2023/02/26 09:15:30;;;;;;;;;;;;;;;2.60;nan;100711.81;4991203;28;19960;-86
2023/02/26 09:17:56;;;;;;;;;;;;;;;2.32;nan;100714.38;4991041;28;19932;-86
2023/02/26 09:20:21;;;;;;;;;;;;;;;2.26;nan;100714.72;4991001;28;19928;-85
2023/02/26 09:22:47;;;;;;;;;;;;;;;1.88;nan;100719.66;4993562;28;19918;-85
2023/02/26 09:25:12;;;;;;;;;;;;;;;1.78;nan;100721.13;5014158;28;19925;-85
2023/02/26 09:27:37;;;;;;;;;;;;;;;1.83;nan;100725.16;5007611;28;19917;-84
2023/02/26 09:30:03;;;;;;;;;;;;;;;1.94;nan;100724.53;4991005;28;19917;-85
2023/02/26 09:32:28;;;;;;;;;;;;;;;1.98;nan;100719.94;4989445;28;20306;-85
2023/02/26 09:34:53;;;;;;;;;;;;;;;2.06;nan;100722.94;4990654;28;20114;-84
2023/02/26 09:37:19;;;;;;;;;;;;;;;2.05;nan;100716.91;4989930;28;19959;-84
2023/02/26 09:39:44;;;;;;;;;;;;;;;2.07;nan;100722.00;4990587;28;20394;-84
2023/02/26 09:42:19;;;;;;;;;;;;;;;2.06;nan;100725.56;4988052;28;19971;-84
2023/02/26 09:44:44;;;;;;;;;;;;;;;2.03;nan;100723.16;4987691;28;19925;-85
2023/02/26 09:47:10;;;;;;;;;;;;;;;1.99;nan;100730.28;4989603;28;20370;-84
2023/02/26 09:49:50;;;;;;;;;;;;;;;1.88;nan;100728.34;4987763;28;19917;-84
2023/02/26 09:52:20;;;;;;;;;;;;;;;1.86;nan;100717.16;4984763;28;19940;-85
2023/02/26 09:54:48;;;;;;;;;;;;;;;1.83;nan;100729.53;4988921;28;19929;-85
2023/02/26 09:57:33;;;;;;;;;;;;;;;1.79;nan;100721.06;4989690;28;20313;-85
2023/02/26 09:59:59;;;;;;;;;;;;;;;1.81;nan;100721.81;5019994;28;20194;-85
2023/02/26 10:02:24;;;;;;;;;;;;;;;1.57;nan;100729.28;4994429;28;19917;-86
2023/02/26 10:05:05;;;;;;;;;;;;;;;1.78;nan;100728.97;4995223;28;19917;-85
2023/02/26 10:07:39;;;;;;;;;;;;;;;1.85;nan;100727.66;5010659;28;20340;-84
2023/02/26 10:10:07;;;;;;;;;;;;;;;1.87;nan;100731.03;5010279;28;19924;-84
2023/02/26 10:12:37;;;;;;;;;;;;;;;1.85;nan;100731.13;5012653;28;19991;-84
2023/02/26 10:15:02;;;;;;;;;;;;;;;2.08;nan;100740.19;4993677;28;19926;-84
2023/02/26 10:17:45;;;;;;;;;;;;;;;2.32;nan;100737.03;5013777;28;19918;-82
2023/02/26 10:20:20;;;;;;;;;;;;;;;2.52;nan;100751.44;4996913;28;20418;-84
2023/02/26 10:22:58;;;;;;;;;;;;;;;2.59;nan;100749.31;4996649;28;19924;-85
2023/02/26 10:25:27;;;;;;;;;;;;;;;2.38;nan;100748.84;4996708;28;20405;-85
2023/02/26 10:27:57;;;;;;;;;;;;;;;2.27;nan;100746.91;5011582;28;19917;-85
2023/02/26 10:30:31;;;;;;;;;;;;;;;2.27;nan;100749.53;5011840;28;20001;-84
2023/02/26 10:33:02;;;;;;;;;;;;;;;2.37;nan;100763.69;4995841;28;20004;-85
2023/02/26 10:35:31;;;;;;;;;;;;;;;2.47;nan;100753.50;5013479;28;19925;-85
2023/02/26 10:37:58;;;;;;;;;;;;;;;2.70;nan;100760.75;4994210;28;19918;-84
2023/02/26 10:40:35;;;;;;;;;;;;;;;2.64;nan;100760.31;5027746;28;21140;-85
2023/02/26 10:43:16;;;;;;;;;;;;;;;2.60;nan;100759.66;4996713;28;19944;-85
2023/02/26 10:45:50;;;;;;;;;;;;;;;2.87;nan;100753.66;5026663;28;19993;-85
2023/02/26 10:48:15;;;;;;;;;;;;;;;4.03;nan;100768.75;4996823;28;20410;-84
2023/02/26 10:50:44;;;;;;;;;;;;;;;5.06;nan;100764.19;4995730;28;19979;-84
2023/02/26 10:53:11;;;;;;;;;;;;;;;5.27;nan;100757.41;4996834;28;20100;-85
2023/02/26 10:55:45;;;;;;;;;;;;;;;5.63;nan;100765.28;5013003;28;19921;-85
2023/02/26 10:58:30;;;;;;;;;;;;;;;5.20;nan;100760.56;5012223;28;19917;-84
2023/02/26 11:00:56;;;;;;;;;;;;;;;5.33;nan;100759.53;4993730;28;19933;-85
2023/02/26 11:03:21;;;;;;;;;;;;;;;4.91;nan;100771.38;4995229;28;19921;-84
2023/02/26 11:05:47;;;;;;;;;;;;;;;5.17;nan;100760.78;4996728;28;19944;-84
2023/02/26 11:08:26;;;;;;;;;;;;;;;5.30;nan;100769.44;4997778;28;19917;-84
2023/02/26 11:10:51;;;;;;;;;;;;;;;4.32;nan;100761.50;5024405;28;19925;-84
2023/02/26 11:13:17;;;;;;;;;;;;;;;4.98;nan;100764.75;4995620;28;19924;-85
2023/02/26 11:15:44;;;;;;;;;;;;;;;6.29;nan;100762.94;4999046;28;19921;-83
2023/02/26 11:18:15;;;;;;;;;;;;;;;6.35;nan;100765.09;5012715;28;19991;-86
2023/02/26 11:20:42;;;;;;;;;;;;;;;6.02;nan;100766.72;5011782;28;19971;-86
2023/02/26 11:23:12;;;;;;;;;;;;;;;5.94;nan;100777.81;4996370;28;19932;-85
2023/02/26 11:25:41;;;;;;;;;;;;;;;5.47;nan;100760.34;5014997;28;20001;-86
2023/02/26 11:28:17;;;;;;;;;;;;;;;5.69;nan;100777.94;4997893;28;19981;-85
2023/02/26 11:30:43;;;;;;;;;;;;;;;4.89;nan;100768.03;4993891;28;20374;-84
2023/02/26 11:33:21;;;;;;;;;;;;;;;4.53;nan;100784.50;4996745;28;19924;-84
2023/02/26 11:35:46;;;;;;;;;;;;;;;4.62;nan;100773.41;5017701;28;19932;-84
2023/02/26 11:38:17;;;;;;;;;;;;;;;4.43;nan;100761.63;4991992;28;19925;-85
2023/02/26 11:40:44;;;;;;;;;;;;;;;5.18;nan;100775.56;4993776;28;19921;-84
2023/02/26 11:43:33;;;;;;;;;;;;;;;6.44;nan;100769.66;4988723;28;19925;-85
2023/02/26 11:45:59;;;;;;;;;;;;;;;7.90;nan;100776.31;5001531;28;19921;-84
2023/02/26 11:48:27;;;;;;;;;;;;;;;6.89;nan;100774.03;4992773;28;19948;-86
2023/02/26 11:51:01;;;;;;;;;;;;;;;6.70;nan;100772.03;5010986;28;19932;-85
2023/02/26 11:53:34;;;;;;;;;;;;;;;6.36;nan;100780.75;5009635;28;19921;-85
2023/02/26 11:56:01;;;;;;;;;;;;;;;5.93;nan;100785.75;4994562;28;19924;-85
2023/02/26 11:58:28;;;;;;;;;;;;;;;5.47;nan;100778.69;5013318;28;19948;-85
2023/02/26 12:00:56;;;;;;;;;;;;;;;5.11;nan;100778.63;4996694;28;19914;-85
2023/02/26 12:03:22;;;;;;;;;;;;;;;4.84;nan;100776.19;5011071;28;19964;-85
2023/02/26 12:05:49;;;;;;;;;;;;;;;4.45;nan;100778.03;4993575;28;19913;-85
2023/02/26 12:08:17;;;;;;;;;;;;;;;4.15;nan;100781.00;5010776;28;20016;-85
2023/02/26 12:10:48;;;;;;;;;;;;;;;4.12;nan;100783.78;4999893;28;20437;-85
2023/02/26 12:13:21;;;;;;;;;;;;;;;3.98;nan;100789.13;4973964;28;19913;-86
2023/02/26 12:15:55;;;;;;;;;;;;;;;3.71;nan;100789.19;4991369;28;19918;-86
2023/02/26 12:18:50;;;;;;;;;;;;;;;3.70;nan;100790.13;5006637;28;19952;-85
2023/02/26 12:21:15;;;;;;;;;;;;;;;3.61;nan;100784.56;4926370;28;19914;-85
2023/02/26 12:23:49;;;;;;;;;;;;;;;3.71;nan;100786.56;4996649;28;19956;-86
2023/02/26 12:26:44;;;;;;;;;;;;;;;3.61;nan;100783.72;4994640;28;19924;-84
2023/02/26 12:29:19;;;;;;;;;;;;;;;3.53;nan;100781.63;4964849;28;19918;-86
2023/02/26 12:31:44;;;;;;;;;;;;;;;3.57;nan;100783.06;4977283;28;19914;-85
2023/02/26 12:34:27;;;;;;;;;;;;;;;3.72;nan;100780.38;4977090;28;19921;-85
2023/02/26 12:37:01;;;;;;;;;;;;;;;3.71;nan;100776.13;4977471;28;20288;-85
2023/02/26 12:39:46;;;;;;;;;;;;;;;3.83;nan;100781.34;4995609;28;20338;-85
2023/02/26 12:42:14;;;;;;;;;;;;;;;3.77;nan;100780.94;4975322;28;20346;-86
2023/02/26 12:44:42;;;;;;;;;;;;;;;3.72;nan;100785.63;4975810;28;19913;-86
2023/02/26 12:47:22;;;;;;;;;;;;;;;3.79;nan;100794.75;4975549;28;20024;-85
2023/02/26 12:50:23;;;;;;;;;;;;;;;3.70;nan;100779.69;4978197;28;19960;-85
2023/02/26 12:52:57;;;;;;;;;;;;;;;3.33;nan;100779.44;4936382;28;19949;-85
2023/02/26 12:55:35;;;;;;;;;;;;;;;3.12;nan;100779.03;5008978;28;19921;-85
2023/02/26 12:58:10;;;;;;;;;;;;;;;3.23;nan;100781.81;4998506;28;19921;-86
2023/02/26 13:00:38;;;;;;;;;;;;;;;3.46;nan;100782.13;4994901;28;19913;-86
2023/02/26 13:03:16;;;;;;;;;;;;;;;3.51;nan;100777.44;4995833;28;19914;-86
2023/02/26 13:06:00;;;;;;;;;;;;;;;3.67;nan;100775.50;4996505;28;19917;-86
2023/02/26 13:08:35;;;;;;;;;;;;;;;3.98;nan;100776.03;5011689;28;19917;-85